sensor_id;sensor_type;location;lat;lon;timestamp;pressure;altitude;pressure_sealevel;temperature;humidity
15694;BME280;7947;48.834;9.132;2023-05-18T00:02:19;98869.94;;;7.65;79.43
15694;BME280;7947;48.834;9.132;2023-05-18T00:05:22;98859.97;;;7.61;80.86
15694;BME280;7947;48.834;9.132;2023-05-18T00:08:25;98859.31;;;7.54;81.21
15694;BME280;7947;48.834;9.132;2023-05-18T00:11:27;98847.59;;;7.55;81.41
15694;BME280;7947;48.834;9.132;2023-05-18T00:14:32;98846.16;;;7.64;82.01
15694;BME280;7947;48.834;9.132;2023-05-18T00:17:35;98840.81;;;7.64;82.20
15694;BME280;7947;48.834;9.132;2023-05-18T00:20:37;98830.66;;;7.77;82.80
15694;BME280;7947;48.834;9.132;2023-05-18T00:23:40;98829.91;;;7.93;82.06
15694;BME280;7947;48.834;9.132;2023-05-18T00:26:50;98823.56;;;7.99;82.12
15694;BME280;7947;48.834;9.132;2023-05-18T00:29:54;98822.47;;;7.95;81.96
15694;BME280;7947;48.834;9.132;2023-05-18T00:32:57;98816.63;;;7.98;81.94
15694;BME280;7947;48.834;9.132;2023-05-18T00:35:59;98822.03;;;8.03;82.02
15694;BME280;7947;48.834;9.132;2023-05-18T00:39:03;98820.69;;;8.17;82.34
15694;BME280;7947;48.834;9.132;2023-05-18T00:42:06;98822.53;;;8.17;81.57
15694;BME280;7947;48.834;9.132;2023-05-18T00:45:10;98827.81;;;8.12;81.09
15694;BME280;7947;48.834;9.132;2023-05-18T00:48:13;98824.16;;;8.01;81.46
15694;BME280;7947;48.834;9.132;2023-05-18T00:51:16;98835.06;;;8.00;81.81
15694;BME280;7947;48.834;9.132;2023-05-18T00:54:19;98825.53;;;8.04;81.91
15694;BME280;7947;48.834;9.132;2023-05-18T00:57:22;98832.50;;;8.05;81.85
15694;BME280;7947;48.834;9.132;2023-05-18T01:00:27;98826.59;;;8.03;81.66
15694;BME280;7947;48.834;9.132;2023-05-18T01:03:31;98816.81;;;8.08;81.44
15694;BME280;7947;48.834;9.132;2023-05-18T01:06:35;98824.25;;;8.06;81.66
15694;BME280;7947;48.834;9.132;2023-05-18T01:09:38;98825.53;;;8.04;81.96
15694;BME280;7947;48.834;9.132;2023-05-18T01:12:44;98823.09;;;8.02;81.98
15694;BME280;7947;48.834;9.132;2023-05-18T01:15:53;98820.69;;;8.01;81.93
15694;BME280;7947;48.834;9.132;2023-05-18T01:19:01;98823.25;;;7.96;82.25
15694;BME280;7947;48.834;9.132;2023-05-18T01:22:12;98833.59;;;7.92;82.54
15694;BME280;7947;48.834;9.132;2023-05-18T01:25:32;98825.03;;;7.90;82.59
15694;BME280;7947;48.834;9.132;2023-05-18T01:28:38;98822.09;;;7.92;82.32
15694;BME280;7947;48.834;9.132;2023-05-18T01:31:41;98824.84;;;7.80;82.27
15694;BME280;7947;48.834;9.132;2023-05-18T01:34:44;98828.00;;;7.77;81.51
15694;BME280;7947;48.834;9.132;2023-05-18T01:37:47;98831.06;;;7.69;81.65
15694;BME280;7947;48.834;9.132;2023-05-18T01:40:55;98824.31;;;7.67;81.94
15694;BME280;7947;48.834;9.132;2023-05-18T01:44:07;98824.56;;;7.65;81.82
15694;BME280;7947;48.834;9.132;2023-05-18T01:47:14;98824.00;;;7.63;80.92
15694;BME280;7947;48.834;9.132;2023-05-18T01:50:20;98817.66;;;7.53;80.73
15694;BME280;7947;48.834;9.132;2023-05-18T01:53:27;98823.84;;;7.42;80.46
15694;BME280;7947;48.834;9.132;2023-05-18T01:56:36;98825.84;;;7.35;80.38
15694;BME280;7947;48.834;9.132;2023-05-18T01:59:42;98824.31;;;7.39;80.49
15694;BME280;7947;48.834;9.132;2023-05-18T02:02:44;98823.16;;;7.35;80.69
15694;BME280;7947;48.834;9.132;2023-05-18T02:05:47;98818.53;;;7.30;79.81
15694;BME280;7947;48.834;9.132;2023-05-18T02:08:50;98816.34;;;7.27;79.92
15694;BME280;7947;48.834;9.132;2023-05-18T02:11:53;98821.13;;;7.25;79.84
15694;BME280;7947;48.834;9.132;2023-05-18T02:14:57;98821.72;;;7.15;79.12
15694;BME280;7947;48.834;9.132;2023-05-18T02:18:01;98816.78;;;6.96;80.21
15694;BME280;7947;48.834;9.132;2023-05-18T02:21:04;98815.72;;;6.97;81.54
15694;BME280;7947;48.834;9.132;2023-05-18T02:24:07;98819.78;;;6.99;81.39
15694;BME280;7947;48.834;9.132;2023-05-18T02:27:10;98815.72;;;6.97;78.98
15694;BME280;7947;48.834;9.132;2023-05-18T02:30:16;98817.94;;;6.88;79.83
15694;BME280;7947;48.834;9.132;2023-05-18T02:33:19;98816.78;;;6.84;80.48
15694;BME280;7947;48.834;9.132;2023-05-18T02:36:26;98817.03;;;6.83;79.90
15694;BME280;7947;48.834;9.132;2023-05-18T02:39:38;98812.47;;;6.83;79.58
15694;BME280;7947;48.834;9.132;2023-05-18T02:42:41;98811.69;;;6.83;78.97
15694;BME280;7947;48.834;9.132;2023-05-18T02:45:45;98807.28;;;6.77;78.90
15694;BME280;7947;48.834;9.132;2023-05-18T02:48:48;98801.84;;;6.72;79.24
15694;BME280;7947;48.834;9.132;2023-05-18T02:51:51;98801.63;;;6.62;79.31
15694;BME280;7947;48.834;9.132;2023-05-18T02:54:54;98809.41;;;6.52;79.74
15694;BME280;7947;48.834;9.132;2023-05-18T02:57:56;98804.06;;;6.52;79.89
15694;BME280;7947;48.834;9.132;2023-05-18T03:01:01;98797.69;;;6.53;79.52
15694;BME280;7947;48.834;9.132;2023-05-18T03:04:08;98805.66;;;6.53;79.38
15694;BME280;7947;48.834;9.132;2023-05-18T03:07:10;98801.97;;;6.54;80.42
15694;BME280;7947;48.834;9.132;2023-05-18T03:10:13;98805.47;;;6.54;79.38
15694;BME280;7947;48.834;9.132;2023-05-18T03:13:16;98799.75;;;6.51;79.72
15694;BME280;7947;48.834;9.132;2023-05-18T03:16:20;98811.91;;;6.47;79.39
15694;BME280;7947;48.834;9.132;2023-05-18T03:19:28;98806.81;;;6.33;79.72
15694;BME280;7947;48.834;9.132;2023-05-18T03:22:31;98798.50;;;6.30;81.16
15694;BME280;7947;48.834;9.132;2023-05-18T03:25:34;98808.22;;;6.24;82.17
15694;BME280;7947;48.834;9.132;2023-05-18T03:28:38;98802.31;;;6.34;81.84
15694;BME280;7947;48.834;9.132;2023-05-18T03:31:42;98802.41;;;6.27;82.76
15694;BME280;7947;48.834;9.132;2023-05-18T03:34:45;98802.41;;;6.27;82.66
15694;BME280;7947;48.834;9.132;2023-05-18T03:37:48;98801.84;;;6.37;82.22
15694;BME280;7947;48.834;9.132;2023-05-18T03:40:51;98801.16;;;6.42;81.46
15694;BME280;7947;48.834;9.132;2023-05-18T03:43:54;98803.16;;;6.46;82.13
15694;BME280;7947;48.834;9.132;2023-05-18T03:46:58;98803.47;;;6.50;82.32
15694;BME280;7947;48.834;9.132;2023-05-18T03:50:01;98808.56;;;6.51;82.05
15694;BME280;7947;48.834;9.132;2023-05-18T03:53:04;98814.47;;;6.53;80.62
15694;BME280;7947;48.834;9.132;2023-05-18T03:56:07;98813.56;;;6.48;80.44
15694;BME280;7947;48.834;9.132;2023-05-18T03:59:09;98819.72;;;6.48;81.65
15694;BME280;7947;48.834;9.132;2023-05-18T04:02:14;98822.72;;;6.40;81.05
15694;BME280;7947;48.834;9.132;2023-05-18T04:05:18;98820.16;;;6.45;80.73
15694;BME280;7947;48.834;9.132;2023-05-18T04:08:20;98824.22;;;6.48;82.39
15694;BME280;7947;48.834;9.132;2023-05-18T04:11:25;98823.53;;;6.52;82.06
15694;BME280;7947;48.834;9.132;2023-05-18T04:14:28;98825.13;;;6.53;82.72
15694;BME280;7947;48.834;9.132;2023-05-18T04:17:34;98831.88;;;6.56;81.92
15694;BME280;7947;48.834;9.132;2023-05-18T04:20:37;98831.88;;;6.56;81.96
15694;BME280;7947;48.834;9.132;2023-05-18T04:23:40;98831.88;;;6.56;82.21
15694;BME280;7947;48.834;9.132;2023-05-18T04:26:43;98837.66;;;6.64;82.13
15694;BME280;7947;48.834;9.132;2023-05-18T04:29:46;98840.31;;;6.64;81.84
15694;BME280;7947;48.834;9.132;2023-05-18T04:32:51;98846.47;;;6.65;82.14
15694;BME280;7947;48.834;9.132;2023-05-18T04:35:55;98848.19;;;6.71;82.68
15694;BME280;7947;48.834;9.132;2023-05-18T04:39:00;98844.63;;;6.54;83.25
15694;BME280;7947;48.834;9.132;2023-05-18T04:42:08;98851.22;;;6.63;84.61
15694;BME280;7947;48.834;9.132;2023-05-18T04:45:11;98840.31;;;6.64;84.28
15694;BME280;7947;48.834;9.132;2023-05-18T04:48:17;98850.28;;;6.69;84.46
15694;BME280;7947;48.834;9.132;2023-05-18T04:51:20;98848.88;;;6.66;84.87
15694;BME280;7947;48.834;9.132;2023-05-18T04:54:23;98848.69;;;6.79;86.20
15694;BME280;7947;48.834;9.132;2023-05-18T04:57:26;98850.03;;;6.93;86.15
15694;BME280;7947;48.834;9.132;2023-05-18T05:00:29;98854.56;;;7.04;85.82
15694;BME280;7947;48.834;9.132;2023-05-18T05:03:34;98850.25;;;7.15;86.56
15694;BME280;7947;48.834;9.132;2023-05-18T05:06:37;98854.41;;;7.22;86.45
15694;BME280;7947;48.834;9.132;2023-05-18T05:09:40;98852.84;;;7.38;86.78
15694;BME280;7947;48.834;9.132;2023-05-18T05:12:43;98857.16;;;7.39;87.20
15694;BME280;7947;48.834;9.132;2023-05-18T05:15:49;98858.03;;;7.56;87.66
15694;BME280;7947;48.834;9.132;2023-05-18T05:18:53;98861.47;;;7.68;87.61
15694;BME280;7947;48.834;9.132;2023-05-18T05:21:56;98856.47;;;7.72;87.09
15694;BME280;7947;48.834;9.132;2023-05-18T05:24:59;98850.00;;;7.84;87.14
15694;BME280;7947;48.834;9.132;2023-05-18T05:28:04;98850.78;;;7.96;87.15
15694;BME280;7947;48.834;9.132;2023-05-18T05:31:07;98846.75;;;8.10;86.08
15694;BME280;7947;48.834;9.132;2023-05-18T05:34:11;98845.19;;;8.26;84.29
15694;BME280;7947;48.834;9.132;2023-05-18T05:37:15;98844.03;;;8.39;83.38
15694;BME280;7947;48.834;9.132;2023-05-18T05:40:17;98849.06;;;8.52;82.88
15694;BME280;7947;48.834;9.132;2023-05-18T05:43:20;98853.34;;;8.69;80.71
15694;BME280;7947;48.834;9.132;2023-05-18T05:46:23;98852.22;;;8.82;80.44
15694;BME280;7947;48.834;9.132;2023-05-18T05:49:28;98848.34;;;8.94;79.82
15694;BME280;7947;48.834;9.132;2023-05-18T05:52:30;98848.59;;;9.09;79.47
15694;BME280;7947;48.834;9.132;2023-05-18T05:55:33;98844.16;;;9.20;78.79
15694;BME280;7947;48.834;9.132;2023-05-18T05:58:41;98842.50;;;9.36;76.48
15694;BME280;7947;48.834;9.132;2023-05-18T06:01:44;98846.16;;;9.51;75.52
15694;BME280;7947;48.834;9.132;2023-05-18T06:04:52;98847.44;;;9.70;75.85
15694;BME280;7947;48.834;9.132;2023-05-18T06:07:55;98845.25;;;9.89;74.57
15694;BME280;7947;48.834;9.132;2023-05-18T06:10:57;98847.97;;;9.94;71.24
15694;BME280;7947;48.834;9.132;2023-05-18T06:14:00;98849.97;;;10.09;68.57
15694;BME280;7947;48.834;9.132;2023-05-18T06:17:03;98857.84;;;10.15;68.45
15694;BME280;7947;48.834;9.132;2023-05-18T06:20:09;98852.53;;;10.20;68.65
15694;BME280;7947;48.834;9.132;2023-05-18T06:23:12;98848.66;;;10.38;69.33
15694;BME280;7947;48.834;9.132;2023-05-18T06:26:15;98857.41;;;10.55;67.54
15694;BME280;7947;48.834;9.132;2023-05-18T06:29:18;98853.47;;;10.67;67.43
15694;BME280;7947;48.834;9.132;2023-05-18T06:32:21;98852.47;;;10.78;67.49
15694;BME280;7947;48.834;9.132;2023-05-18T06:35:27;98854.94;;;10.85;67.76
15694;BME280;7947;48.834;9.132;2023-05-18T06:38:30;98850.78;;;11.09;68.33
15694;BME280;7947;48.834;9.132;2023-05-18T06:41:33;98857.59;;;11.27;68.64
15694;BME280;7947;48.834;9.132;2023-05-18T06:44:35;98854.19;;;11.46;67.86
15694;BME280;7947;48.834;9.132;2023-05-18T06:47:38;98848.84;;;11.51;65.20
15694;BME280;7947;48.834;9.132;2023-05-18T06:50:44;98850.56;;;11.72;64.60
15694;BME280;7947;48.834;9.132;2023-05-18T06:53:47;98842.50;;;11.72;64.29
15694;BME280;7947;48.834;9.132;2023-05-18T06:56:51;98848.72;;;11.93;64.02
15694;BME280;7947;48.834;9.132;2023-05-18T06:59:54;98842.59;;;12.08;63.10
15694;BME280;7947;48.834;9.132;2023-05-18T07:02:57;98838.31;;;12.32;63.19
15694;BME280;7947;48.834;9.132;2023-05-18T07:06:01;98849.59;;;12.49;64.01
15694;BME280;7947;48.834;9.132;2023-05-18T07:09:05;98841.00;;;12.67;61.41
15694;BME280;7947;48.834;9.132;2023-05-18T07:12:08;98846.09;;;12.79;62.21
15694;BME280;7947;48.834;9.132;2023-05-18T07:15:11;98846.88;;;12.94;60.68
15694;BME280;7947;48.834;9.132;2023-05-18T07:18:14;98843.09;;;13.15;60.90
15694;BME280;7947;48.834;9.132;2023-05-18T07:21:18;98847.38;;;13.16;59.77
15694;BME280;7947;48.834;9.132;2023-05-18T07:24:21;98850.59;;;13.28;59.36
15694;BME280;7947;48.834;9.132;2023-05-18T07:27:23;98841.16;;;13.31;59.08
15694;BME280;7947;48.834;9.132;2023-05-18T07:30:27;98841.66;;;13.43;58.58
15694;BME280;7947;48.834;9.132;2023-05-18T07:33:29;98844.25;;;13.63;59.35
15694;BME280;7947;48.834;9.132;2023-05-18T07:36:33;98836.56;;;13.90;58.73
15694;BME280;7947;48.834;9.132;2023-05-18T07:39:37;98841.63;;;14.02;58.16
15694;BME280;7947;48.834;9.132;2023-05-18T07:42:40;98839.69;;;14.07;57.13
15694;BME280;7947;48.834;9.132;2023-05-18T07:45:43;98831.00;;;14.15;56.41
15694;BME280;7947;48.834;9.132;2023-05-18T07:48:46;98832.03;;;14.29;56.74
15694;BME280;7947;48.834;9.132;2023-05-18T07:51:50;98826.72;;;14.53;59.34
15694;BME280;7947;48.834;9.132;2023-05-18T07:54:54;98827.03;;;14.46;55.18
15694;BME280;7947;48.834;9.132;2023-05-18T07:57:56;98825.75;;;14.68;55.92
15694;BME280;7947;48.834;9.132;2023-05-18T08:01:01;98817.19;;;14.89;56.86
15694;BME280;7947;48.834;9.132;2023-05-18T08:04:04;98820.03;;;15.03;56.66
15694;BME280;7947;48.834;9.132;2023-05-18T08:07:08;98821.47;;;15.19;54.65
15694;BME280;7947;48.834;9.132;2023-05-18T08:10:13;98826.41;;;15.35;54.91
15694;BME280;7947;48.834;9.132;2023-05-18T08:13:16;98828.78;;;15.66;56.67
15694;BME280;7947;48.834;9.132;2023-05-18T08:16:18;98817.88;;;15.89;54.50
15694;BME280;7947;48.834;9.132;2023-05-18T08:19:21;98816.78;;;16.09;53.67
15694;BME280;7947;48.834;9.132;2023-05-18T08:22:26;98807.72;;;16.18;49.50
15694;BME280;7947;48.834;9.132;2023-05-18T08:25:28;98808.03;;;16.17;51.43
15694;BME280;7947;48.834;9.132;2023-05-18T08:28:32;98810.06;;;16.25;51.76
15694;BME280;7947;48.834;9.132;2023-05-18T08:31:35;98799.44;;;16.28;51.13
15694;BME280;7947;48.834;9.132;2023-05-18T08:34:38;98800.97;;;16.35;49.92
15694;BME280;7947;48.834;9.132;2023-05-18T08:37:42;98801.56;;;16.50;50.46
15694;BME280;7947;48.834;9.132;2023-05-18T08:40:50;98790.00;;;16.45;50.27
15694;BME280;7947;48.834;9.132;2023-05-18T08:44:00;98790.94;;;16.54;51.08
15694;BME280;7947;48.834;9.132;2023-05-18T08:47:07;98787.34;;;16.58;50.87
15694;BME280;7947;48.834;9.132;2023-05-18T08:50:10;98795.47;;;16.40;48.95
15694;BME280;7947;48.834;9.132;2023-05-18T08:53:17;98794.59;;;16.44;49.93
15694;BME280;7947;48.834;9.132;2023-05-18T08:56:23;98781.97;;;16.72;51.88
15694;BME280;7947;48.834;9.132;2023-05-18T08:59:30;98774.56;;;17.04;49.77
15694;BME280;7947;48.834;9.132;2023-05-18T09:02:34;98777.47;;;17.22;48.35
15694;BME280;7947;48.834;9.132;2023-05-18T09:05:38;98772.25;;;17.25;48.79
15694;BME280;7947;48.834;9.132;2023-05-18T09:08:45;98767.25;;;17.32;46.96
15694;BME280;7947;48.834;9.132;2023-05-18T09:11:48;98767.22;;;17.46;47.82
15694;BME280;7947;48.834;9.132;2023-05-18T09:14:52;98769.97;;;17.32;47.08
15694;BME280;7947;48.834;9.132;2023-05-18T09:17:56;98763.41;;;17.47;46.90
15694;BME280;7947;48.834;9.132;2023-05-18T09:20:58;98778.47;;;17.39;47.40
15694;BME280;7947;48.834;9.132;2023-05-18T09:24:03;98765.59;;;17.45;45.26
15694;BME280;7947;48.834;9.132;2023-05-18T09:27:06;98765.31;;;17.33;44.71
15694;BME280;7947;48.834;9.132;2023-05-18T09:30:10;98770.03;;;17.00;46.07
15694;BME280;7947;48.834;9.132;2023-05-18T09:33:16;98773.19;;;17.21;46.70
15694;BME280;7947;48.834;9.132;2023-05-18T09:36:25;98771.06;;;17.04;46.24
15694;BME280;7947;48.834;9.132;2023-05-18T09:39:31;98770.09;;;16.54;45.49
15694;BME280;7947;48.834;9.132;2023-05-18T09:42:34;98774.63;;;16.59;47.25
15694;BME280;7947;48.834;9.132;2023-05-18T09:45:41;98769.03;;;16.82;46.55
15694;BME280;7947;48.834;9.132;2023-05-18T09:48:50;98760.13;;;17.23;47.11
15694;BME280;7947;48.834;9.132;2023-05-18T09:51:53;98759.31;;;17.49;46.06
15694;BME280;7947;48.834;9.132;2023-05-18T09:55:00;98760.31;;;17.89;46.86
15694;BME280;7947;48.834;9.132;2023-05-18T09:58:06;98762.19;;;18.02;45.10
15694;BME280;7947;48.834;9.132;2023-05-18T10:01:09;98753.00;;;18.12;44.04
15694;BME280;7947;48.834;9.132;2023-05-18T10:04:12;98746.38;;;18.04;44.79
15694;BME280;7947;48.834;9.132;2023-05-18T10:07:16;98747.31;;;17.99;43.34
15694;BME280;7947;48.834;9.132;2023-05-18T10:10:22;98743.19;;;18.24;43.15
15694;BME280;7947;48.834;9.132;2023-05-18T10:13:25;98740.59;;;18.19;43.51
15694;BME280;7947;48.834;9.132;2023-05-18T10:16:28;98743.38;;;18.28;42.29
15694;BME280;7947;48.834;9.132;2023-05-18T10:19:34;98734.22;;;18.24;42.68
15694;BME280;7947;48.834;9.132;2023-05-18T10:22:36;98742.91;;;18.56;44.65
15694;BME280;7947;48.834;9.132;2023-05-18T10:25:44;98742.09;;;18.78;42.56
15694;BME280;7947;48.834;9.132;2023-05-18T10:28:49;98732.91;;;18.96;42.98
15694;BME280;7947;48.834;9.132;2023-05-18T10:31:52;98738.88;;;19.15;40.35
15694;BME280;7947;48.834;9.132;2023-05-18T10:34:58;98738.06;;;19.15;40.48
15694;BME280;7947;48.834;9.132;2023-05-18T10:38:04;98719.84;;;19.15;39.67
15694;BME280;7947;48.834;9.132;2023-05-18T10:41:10;98729.28;;;19.18;40.50
15694;BME280;7947;48.834;9.132;2023-05-18T10:44:15;98734.75;;;19.26;40.16
15694;BME280;7947;48.834;9.132;2023-05-18T10:47:20;98728.88;;;18.93;39.06
15694;BME280;7947;48.834;9.132;2023-05-18T10:50:26;98724.88;;;18.60;41.68
15694;BME280;7947;48.834;9.132;2023-05-18T10:53:30;98732.38;;;18.33;42.48
15694;BME280;7947;48.834;9.132;2023-05-18T10:56:34;98734.00;;;18.12;41.23
15694;BME280;7947;48.834;9.132;2023-05-18T10:59:39;98731.03;;;17.99;41.66
15694;BME280;7947;48.834;9.132;2023-05-18T11:02:46;98732.97;;;18.21;43.04
15694;BME280;7947;48.834;9.132;2023-05-18T11:06:03;98727.94;;;18.59;41.86
15694;BME280;7947;48.834;9.132;2023-05-18T11:09:07;98727.41;;;18.87;41.46
15694;BME280;7947;48.834;9.132;2023-05-18T11:12:12;98724.66;;;19.27;43.87
15694;BME280;7947;48.834;9.132;2023-05-18T11:15:17;98726.34;;;19.53;43.11
15694;BME280;7947;48.834;9.132;2023-05-18T11:18:25;98722.22;;;19.82;40.51
15694;BME280;7947;48.834;9.132;2023-05-18T11:21:52;98707.94;;;19.42;39.25
15694;BME280;7947;48.834;9.132;2023-05-18T11:24:55;98709.31;;;19.31;41.14
15694;BME280;7947;48.834;9.132;2023-05-18T11:28:00;98711.31;;;19.56;42.35
15694;BME280;7947;48.834;9.132;2023-05-18T11:31:06;98715.13;;;19.38;39.07
15694;BME280;7947;48.834;9.132;2023-05-18T11:34:36;98718.63;;;19.30;39.58
15694;BME280;7947;48.834;9.132;2023-05-18T11:37:47;98709.16;;;19.27;40.20
15694;BME280;7947;48.834;9.132;2023-05-18T11:40:57;98707.34;;;19.06;40.75
15694;BME280;7947;48.834;9.132;2023-05-18T11:44:15;98706.84;;;19.04;41.01
15694;BME280;7947;48.834;9.132;2023-05-18T11:47:18;98701.25;;;19.09;41.65
15694;BME280;7947;48.834;9.132;2023-05-18T11:50:21;98692.72;;;19.49;44.53
15694;BME280;7947;48.834;9.132;2023-05-18T11:53:25;98695.16;;;19.85;41.28
15694;BME280;7947;48.834;9.132;2023-05-18T11:56:30;98686.19;;;20.19;40.15
15694;BME280;7947;48.834;9.132;2023-05-18T11:59:38;98687.19;;;20.52;40.07
15694;BME280;7947;48.834;9.132;2023-05-18T12:02:43;98682.56;;;20.52;39.96
15694;BME280;7947;48.834;9.132;2023-05-18T12:05:47;98694.00;;;20.29;37.80
15694;BME280;7947;48.834;9.132;2023-05-18T12:08:50;98680.38;;;20.12;39.34
15694;BME280;7947;48.834;9.132;2023-05-18T12:11:54;98680.53;;;20.15;39.89
15694;BME280;7947;48.834;9.132;2023-05-18T12:14:59;98670.09;;;20.34;38.47
15694;BME280;7947;48.834;9.132;2023-05-18T12:18:02;98688.91;;;19.85;37.64
15694;BME280;7947;48.834;9.132;2023-05-18T12:21:05;98686.66;;;19.61;38.74
15694;BME280;7947;48.834;9.132;2023-05-18T12:24:08;98683.63;;;19.54;38.62
15694;BME280;7947;48.834;9.132;2023-05-18T12:27:11;98675.13;;;19.72;39.47
15694;BME280;7947;48.834;9.132;2023-05-18T12:30:18;98668.09;;;19.97;39.92
15694;BME280;7947;48.834;9.132;2023-05-18T12:33:21;98675.44;;;19.97;38.51
15694;BME280;7947;48.834;9.132;2023-05-18T12:36:24;98669.22;;;19.79;38.82
15694;BME280;7947;48.834;9.132;2023-05-18T12:39:27;98663.78;;;19.79;41.02
15694;BME280;7947;48.834;9.132;2023-05-18T12:42:30;98679.47;;;19.73;38.23
15694;BME280;7947;48.834;9.132;2023-05-18T12:45:34;98669.38;;;19.74;38.08
15694;BME280;7947;48.834;9.132;2023-05-18T12:48:44;98669.06;;;19.58;38.61
15694;BME280;7947;48.834;9.132;2023-05-18T12:51:47;98659.94;;;19.46;40.44
15694;BME280;7947;48.834;9.132;2023-05-18T12:54:51;98653.19;;;19.35;39.28
15694;BME280;7947;48.834;9.132;2023-05-18T12:58:01;98661.00;;;19.28;39.44
15694;BME280;7947;48.834;9.132;2023-05-18T13:01:09;98656.97;;;19.17;40.02
15694;BME280;7947;48.834;9.132;2023-05-18T13:04:12;98664.16;;;19.04;38.74
15694;BME280;7947;48.834;9.132;2023-05-18T13:07:16;98654.69;;;18.93;38.37
15694;BME280;7947;48.834;9.132;2023-05-18T13:10:18;98656.34;;;19.03;39.86
15694;BME280;7947;48.834;9.132;2023-05-18T13:13:21;98661.78;;;19.11;39.35
15694;BME280;7947;48.834;9.132;2023-05-18T13:16:25;98650.66;;;19.38;39.60
15694;BME280;7947;48.834;9.132;2023-05-18T13:19:33;98649.53;;;19.56;41.35
15694;BME280;7947;48.834;9.132;2023-05-18T13:22:36;98655.88;;;19.26;40.06
15694;BME280;7947;48.834;9.132;2023-05-18T13:25:39;98655.19;;;19.04;39.29
15694;BME280;7947;48.834;9.132;2023-05-18T13:28:42;98648.78;;;18.91;40.49
15694;BME280;7947;48.834;9.132;2023-05-18T13:31:46;98648.69;;;19.22;41.84
15694;BME280;7947;48.834;9.132;2023-05-18T13:34:49;98653.13;;;19.09;38.38
15694;BME280;7947;48.834;9.132;2023-05-18T13:37:52;98651.66;;;19.03;39.96
15694;BME280;7947;48.834;9.132;2023-05-18T13:40:55;98650.03;;;18.85;40.32
15694;BME280;7947;48.834;9.132;2023-05-18T13:43:58;98638.56;;;18.97;41.45
15694;BME280;7947;48.834;9.132;2023-05-18T13:47:03;98637.94;;;19.17;40.30
15694;BME280;7947;48.834;9.132;2023-05-18T13:50:07;98640.03;;;19.28;41.60
15694;BME280;7947;48.834;9.132;2023-05-18T13:53:10;98634.44;;;19.16;40.21
15694;BME280;7947;48.834;9.132;2023-05-18T13:56:13;98632.00;;;18.98;40.89
15694;BME280;7947;48.834;9.132;2023-05-18T13:59:16;98625.44;;;19.07;41.54
15694;BME280;7947;48.834;9.132;2023-05-18T14:02:21;98622.66;;;19.46;41.71
15694;BME280;7947;48.834;9.132;2023-05-18T14:05:24;98614.28;;;19.86;39.74
15694;BME280;7947;48.834;9.132;2023-05-18T14:08:27;98610.72;;;20.11;41.40
15694;BME280;7947;48.834;9.132;2023-05-18T14:11:30;98607.13;;;20.36;39.35
15694;BME280;7947;48.834;9.132;2023-05-18T14:14:35;98603.13;;;20.33;37.97
15694;BME280;7947;48.834;9.132;2023-05-18T14:17:39;98601.25;;;20.63;37.91
15694;BME280;7947;48.834;9.132;2023-05-18T14:20:42;98605.63;;;20.55;38.10
15694;BME280;7947;48.834;9.132;2023-05-18T14:23:47;98599.00;;;20.65;39.53
15694;BME280;7947;48.834;9.132;2023-05-18T14:26:49;98596.50;;;20.81;37.22
15694;BME280;7947;48.834;9.132;2023-05-18T14:29:54;98596.75;;;20.67;36.94
15694;BME280;7947;48.834;9.132;2023-05-18T14:32:58;98594.34;;;20.28;37.91
15694;BME280;7947;48.834;9.132;2023-05-18T14:36:02;98598.44;;;19.70;38.05
15694;BME280;7947;48.834;9.132;2023-05-18T14:39:05;98579.25;;;19.75;39.36
15694;BME280;7947;48.834;9.132;2023-05-18T14:42:08;98591.56;;;19.73;38.59
15694;BME280;7947;48.834;9.132;2023-05-18T14:45:10;98587.91;;;19.60;39.68
15694;BME280;7947;48.834;9.132;2023-05-18T14:48:15;98592.09;;;19.41;39.09
15694;BME280;7947;48.834;9.132;2023-05-18T14:51:18;98585.63;;;19.11;38.29
15694;BME280;7947;48.834;9.132;2023-05-18T14:54:20;98593.97;;;19.06;40.03
15694;BME280;7947;48.834;9.132;2023-05-18T14:57:23;98589.00;;;18.91;38.18
15694;BME280;7947;48.834;9.132;2023-05-18T15:00:27;98591.03;;;18.77;38.50
15694;BME280;7947;48.834;9.132;2023-05-18T15:03:32;98589.44;;;18.84;41.19
15694;BME280;7947;48.834;9.132;2023-05-18T15:06:35;98597.41;;;18.72;38.50
15694;BME280;7947;48.834;9.132;2023-05-18T15:09:38;98594.06;;;18.75;40.22
15694;BME280;7947;48.834;9.132;2023-05-18T15:12:41;98599.44;;;18.50;38.80
15694;BME280;7947;48.834;9.132;2023-05-18T15:15:44;98597.88;;;18.27;39.40
15694;BME280;7947;48.834;9.132;2023-05-18T15:18:48;98589.50;;;18.15;39.87
15694;BME280;7947;48.834;9.132;2023-05-18T15:21:51;98592.31;;;18.01;39.72
15694;BME280;7947;48.834;9.132;2023-05-18T15:24:54;98583.56;;;18.13;41.01
15694;BME280;7947;48.834;9.132;2023-05-18T15:27:57;98587.03;;;18.35;39.02
15694;BME280;7947;48.834;9.132;2023-05-18T15:31:00;98581.38;;;18.54;40.49
15694;BME280;7947;48.834;9.132;2023-05-18T15:34:04;98590.16;;;18.51;40.52
15694;BME280;7947;48.834;9.132;2023-05-18T15:37:07;98587.69;;;18.41;39.95
15694;BME280;7947;48.834;9.132;2023-05-18T15:40:11;98583.53;;;18.35;40.11
15694;BME280;7947;48.834;9.132;2023-05-18T15:43:14;98584.00;;;18.37;40.48
15694;BME280;7947;48.834;9.132;2023-05-18T15:46:17;98581.75;;;18.69;39.51
15694;BME280;7947;48.834;9.132;2023-05-18T15:49:21;98580.66;;;18.79;39.60
15694;BME280;7947;48.834;9.132;2023-05-18T15:52:25;98583.94;;;18.59;40.13
15694;BME280;7947;48.834;9.132;2023-05-18T15:55:28;98588.38;;;18.46;39.63
15694;BME280;7947;48.834;9.132;2023-05-18T15:58:31;98579.28;;;18.20;39.92
15694;BME280;7947;48.834;9.132;2023-05-18T16:01:34;98587.09;;;18.13;40.04
15694;BME280;7947;48.834;9.132;2023-05-18T16:04:39;98592.31;;;18.01;40.45
15694;BME280;7947;48.834;9.132;2023-05-18T16:07:42;98582.69;;;17.95;39.38
15694;BME280;7947;48.834;9.132;2023-05-18T16:10:46;98577.84;;;17.83;40.83
15694;BME280;7947;48.834;9.132;2023-05-18T16:13:49;98587.28;;;17.86;39.33
15694;BME280;7947;48.834;9.132;2023-05-18T16:16:57;98579.56;;;17.79;39.58
15694;BME280;7947;48.834;9.132;2023-05-18T16:20:01;98576.50;;;17.72;41.43
15694;BME280;7947;48.834;9.132;2023-05-18T16:23:04;98580.13;;;17.68;39.52
15694;BME280;7947;48.834;9.132;2023-05-18T16:26:07;98578.97;;;17.60;40.10
15694;BME280;7947;48.834;9.132;2023-05-18T16:29:10;98574.91;;;17.49;39.99
15694;BME280;7947;48.834;9.132;2023-05-18T16:32:13;98584.34;;;17.38;39.09
15694;BME280;7947;48.834;9.132;2023-05-18T16:35:20;98587.19;;;17.33;38.89